Latest Weather Observations for Bathurst Airport

IDN60801

Issued at 12:05 pm EST Wednesday 24 September 2014 (issued every 30 minutes, with the page automatically refreshed every 10 minutes)

About weather observations | Map of weather stations | Latest weather observations for NSW | Other Formats
Station Details ID: 063291 Name: BATHURST AIRPORT AWS Lat: -33.41 Lon: 149.65 Height: 744.5 m
Data from the previous 72 hours. | See also: Recent months for locations in New South Wales
Date/Time
EST
Temp
°C
App
Temp
°C
Dew
Point
Rel
Hum
%
Delta-T
°C
Wind Press
QNH
hPa
Press
MSL
hPa
Rain
since 9 am
mm
Dir
 
Spd
km/h
Gust
km/h
Spd
kts
Gust
kts
24/12:00pm 18.5 14.9 8.2 51 5.5 N 17 24 9 13 1021.8 1021.4 0.0
24/11:30am 17.9 14.3 8.5 54 5.0 NNW 17 26 9 14 1022.4 1022.0 0.0
24/11:00am 18.3 13.8 8.6 53 5.2 NNW 22 28 12 15 1023.0 1022.7 0.0
24/10:30am 18.1 14.6 8.7 54 5.1 NNW 17 24 9 13 1023.5 1023.1 0.0
24/10:00am 16.1 11.9 7.3 56 4.5 N 19 24 10 13 1023.9 1023.6 0.0
24/09:30am 15.3 11.1 7.3 59 4.1 NNW 19 24 10 13 1024.0 1023.7 0.0
24/09:00am 13.7 11.8 7.7 67 3.1 N 7 13 4 7 1024.3 1024.0 0.0
24/08:30am 11.4 10.7 6.9 74 2.2 CALM 0 6 0 3 1024.4 1024.1 0.0
24/08:00am 8.9 7.5 5.3 78 1.7 SE 2 7 1 4 1024.4 1024.1 0.0
24/07:30am 5.8 2.9 4.4 91 0.6 SW 9 11 5 6 1024.3 1024.0 0.0
24/07:00am 5.4 3.0 4.2 92 0.5 SE 6 9 3 5 1024.2 1023.9 0.0
24/06:30am 3.9 1.4 3.8 99 0.0 SW 6 7 3 4 1024.1 1023.8 0.0
24/06:00am 2.9 1.4 2.8 99 0.0 CALM 0 0 0 0 1024.0 1023.7 0.0
24/05:30am 2.4 0.3 1.4 93 0.4 ESE 2 7 1 4 1023.7 1023.4 0.0
24/05:00am 3.2 0.6 3.1 99 0.0 ESE 6 9 3 5 1023.8 1023.5 0.0
24/04:30am 3.4 0.5 2.7 95 0.3 SSW 7 7 4 4 1024.0 1023.7 0.0
24/04:00am 4.0 1.2 3.1 94 0.4 SW 7 9 4 5 1023.9 1023.6 0.0
24/03:30am 5.0 2.0 4.3 95 0.3 E 9 9 5 5 1023.9 1023.6 0.0
24/03:00am 4.8 3.3 2.8 87 0.9 CALM 0 0 0 0 1024.2 1023.9 0.0
24/02:30am 5.0 3.2 3.2 88 0.8 WSW 2 7 1 4 1024.4 1024.1 0.0
24/02:00am 4.6 1.7 2.5 86 0.9 WSW 7 9 4 5 1024.5 1024.2 0.0
24/01:30am 6.2 4.9 3.9 85 1.0 CALM 0 6 0 3 1024.8 1024.5 0.0
24/01:00am 6.3 4.8 3.1 80 1.4 CALM 0 0 0 0 1024.9 1024.6 0.0
24/12:30am 6.6 3.7 1.7 71 2.1 S 6 7 3 4 1025.2 1024.9 0.0
24/12:00am 7.0 4.2 2.9 75 1.8 SSW 7 9 4 5 1025.3 1025.0 0.0
 
Date/Time
EST
Temp
°C
App
Temp
°C
Dew
Point
Rel
Hum
%
Delta-T
°C
Wind Press
QNH
hPa
Press
MSL
hPa
Rain
since 9 am
mm
Dir
 
Spd
km/h
Gust
km/h
Spd
kts
Gust
kts
23/11:30pm 9.5 5.8 2.6 62 3.1 ESE 11 13 6 7 1025.5 1025.2 0.0
23/11:00pm 9.7 5.7 3.0 63 3.0 E 13 17 7 9 1025.5 1025.2 0.0
23/10:30pm 11.7 8.7 1.9 51 4.4 E 7 9 4 5 1025.8 1025.5 0.0
23/10:00pm 9.9 8.2 1.8 57 3.5 CALM 0 0 0 0 1026.3 1026.0 0.0
23/09:30pm 11.0 8.5 1.3 51 4.2 S 4 6 2 3 1026.3 1026.0 0.0
23/09:00pm 11.6 9.4 1.0 48 4.6 S 2 7 1 4 1026.2 1025.9 0.0
23/08:30pm 12.2 9.6 1.2 47 4.9 W 4 7 2 4 1025.9 1025.7 0.0
23/08:00pm 11.2 7.6 0.6 48 4.5 NNE 9 13 5 7 1025.8 1025.5 0.0
23/07:30pm 10.7 6.3 0.4 49 4.4 ENE 13 17 7 9 1025.6 1025.3 0.0
23/07:00pm 12.9 8.3 -1.1 38 5.9 NE 13 13 7 7 1025.7 1025.4 0.0
23/06:30pm 13.3 9.5 -1.1 37 6.1 N 9 11 5 6 1025.6 1025.3 0.0
23/06:00pm 14.3 10.2 -0.2 37 6.3 NNE 11 13 6 7 1025.3 1025.0 0.0
23/05:30pm 16.1 11.9 1.4 37 6.7 N 13 15 7 8 1025.2 1024.9 0.0
23/05:00pm 18.7 15.0 2.1 33 7.8 N 11 13 6 7 1025.0 1024.7 0.0
23/04:30pm 20.8 18.8 2.1 29 9.0 NW 2 7 1 4 1024.9 1024.6 0.0
23/04:00pm 20.2 17.1 0.1 26 9.2 SSE 6 11 3 6 1024.8 1024.5 0.0
23/03:30pm 20.7 17.7 1.1 27 9.3 N 6 13 3 7 1025.1 1024.8 0.0
23/03:00pm 20.5 16.9 0.4 26 9.3 NNW 9 17 5 9 1025.4 1025.1 0.0
23/02:30pm 20.4 16.6 1.8 29 8.9 N 11 17 6 9 1025.7 1025.4 0.0
23/02:00pm 20.0 17.1 2.4 31 8.4 WNW 7 15 4 8 1026.2 1025.9 0.0
23/01:30pm 19.3 16.3 2.2 32 8.2 N 7 13 4 7 1026.5 1026.2 0.0
23/01:00pm 19.3 16.8 3.5 35 7.7 NNW 6 11 3 6 1026.8 1026.5 0.0
23/12:30pm 18.3 15.6 3.8 38 7.1 W 7 11 4 6 1027.3 1027.1 0.0
23/12:00pm 18.0 15.7 4.9 42 6.5 WNW 6 13 3 7 1028.0 1027.7 0.0
23/11:30am 17.8 15.7 5.7 45 6.1 NW 6 9 3 5 1028.4 1028.2 0.0
23/11:00am 15.8 13.4 5.1 49 5.2 W 7 11 4 6 1029.0 1028.7 0.0
23/10:30am 15.2 13.2 7.2 59 4.1 W 7 9 4 5 1029.4 1029.2 0.0
23/10:00am 13.7 11.9 7.2 65 3.3 W 6 9 3 5 1029.7 1029.5 0.0
23/09:30am 11.7 9.7 6.4 70 2.6 WSW 6 9 3 5 1030.1 1029.9 0.0
23/09:00am 9.5 7.3 6.0 79 1.7 W 7 11 4 6 1030.6 1030.4 0.0
23/08:30am 8.3 6.3 6.4 88 0.9 W 6 9 3 5 1030.5 1030.2 0.0
23/08:00am 6.9 4.7 6.2 95 0.3 WSW 7 9 4 5 1030.6 1030.4 0.0
23/07:30am 5.3 4.2 4.9 97 0.2 CALM 0 0 0 0 1030.5 1030.2 0.0
23/07:09am 4.7 3.5 4.6 99 0.0 CALM 0 0 0 0 1030.5 1030.2 0.0
23/07:00am 3.6 1.8 3.5 99 0.0 SSW 2 7 1 4 1030.3 1030.1 0.0
23/06:53am 2.7 0.0 2.6 99 0.0 SSW 6 7 3 4 1030.5 1030.2 0.0
23/06:30am 1.7 0.0 1.6 99 0.0 CALM 0 9 0 5 1030.2 1030.0 0.0
23/06:00am 2.1 -0.9 2.0 99 0.0 SSE 7 9 4 5 1030.0 1029.8 0.0
23/05:30am 2.6 -0.1 2.5 99 0.0 SE 6 9 3 5 1030.0 1029.8 0.0
23/05:00am 2.9 1.4 2.8 99 0.0 CALM 0 0 0 0 1029.9 1029.7 0.0
23/04:30am 2.3 0.7 2.2 99 0.0 CALM 0 0 0 0 1029.6 1029.4 0.0
23/04:00am 3.8 1.7 3.7 99 0.0 SE 4 7 2 4 1029.4 1029.2 0.0
23/03:30am 4.4 3.1 4.3 99 0.0 CALM 0 0 0 0 1029.5 1029.3 0.0
23/03:00am 4.7 3.5 4.4 98 0.1 CALM 0 0 0 0 1029.4 1029.2 0.0
23/02:30am 5.0 3.8 4.6 97 0.2 CALM 0 0 0 0 1029.5 1029.3 0.0
23/02:00am 5.2 4.0 4.6 96 0.3 CALM 0 0 0 0 1029.6 1029.4 0.0
23/01:30am 5.5 3.1 4.5 93 0.4 SSW 6 7 3 4 1029.8 1029.6 0.0
23/01:00am 6.6 5.5 4.9 89 0.8 CALM 0 0 0 0 1029.9 1029.7 0.0
23/12:30am 7.3 5.1 5.1 86 1.0 SSW 6 7 3 4 1030.0 1029.8 0.0
23/12:00am 6.7 4.6 4.0 83 1.2 S 4 11 2 6 1029.9 1029.7 0.0
 
Date/Time
EST
Temp
°C
App
Temp
°C
Dew
Point
Rel
Hum
%
Delta-T
°C
Wind Press
QNH
hPa
Press
MSL
hPa
Rain
since 9 am
mm
Dir
 
Spd
km/h
Gust
km/h
Spd
kts
Gust
kts
22/11:30pm 6.6 4.6 4.4 86 1.0 ENE 4 9 2 5 1029.9 1029.7 0.0
22/11:00pm 7.3 5.5 3.2 75 1.8 SE 2 7 1 4 1029.9 1029.7 0.0
22/10:30pm 7.8 5.0 3.3 73 2.0 S 7 9 4 5 1030.0 1029.8 0.0
22/10:00pm 10.3 7.3 4.0 65 2.9 E 9 13 5 7 1030.0 1029.8 0.0
22/09:30pm 10.7 9.1 4.6 66 2.9 S 2 7 1 4 1030.1 1029.9 0.0
22/09:00pm 9.4 8.0 3.6 67 2.6 CALM 0 0 0 0 1030.0 1029.8 0.0
22/08:30pm 11.3 7.5 3.8 60 3.5 ENE 13 17 7 9 1029.7 1029.5 0.0
22/08:00pm 10.5 7.3 3.3 61 3.3 NE 9 15 5 8 1029.5 1029.3 0.0
22/07:30pm 11.3 8.1 2.9 56 3.8 NE 9 13 5 7 1029.3 1029.0 0.0
22/07:00pm 11.8 8.2 2.8 54 4.1 ENE 11 13 6 7 1028.8 1028.6 0.0
22/06:30pm 13.5 11.8 1.8 45 5.3 CALM 0 0 0 0 1028.4 1028.2 0.0
22/06:00pm 15.7 14.2 2.8 42 6.0 CALM 0 0 0 0 1028.1 1027.8 0.0
22/05:30pm 16.3 13.7 4.0 44 6.0 S 7 9 4 5 1027.9 1027.6 0.0
22/05:00pm 17.6 14.7 2.4 36 7.2 SSW 7 11 4 6 1027.7 1027.4 0.0
22/04:30pm 18.1 15.2 1.2 32 7.8 SSE 6 11 3 6 1027.7 1027.4 0.0
22/04:00pm 18.4 14.6 -0.4 28 8.4 SSW 9 15 5 8 1027.7 1027.4 0.0
22/03:30pm 18.5 15.3 0.6 30 8.2 WNW 7 15 4 8 1027.9 1027.6 0.0
22/03:00pm 18.2 14.7 -1.6 26 8.6 W 7 13 4 7 1028.1 1027.8 0.0
22/02:30pm 17.8 13.2 -0.9 28 8.3 SW 13 20 7 11 1028.3 1028.1 0.0
22/02:00pm 18.0 14.9 1.1 32 7.8 W 7 13 4 7 1028.6 1028.4 0.0
22/01:30pm 17.7 13.9 -1.0 28 8.3 WNW 9 13 5 7 1029.0 1028.7 0.0
22/01:00pm 17.1 13.7 1.9 36 7.0 N 9 13 5 7 1029.4 1029.2 0.0
22/12:30pm 16.2 14.0 3.3 42 6.2 N 4 9 2 5 1029.9 1029.7 0.0
22/12:00pm 15.2 13.0 5.1 51 4.9 WSW 6 9 3 5 1030.5 1030.2 0.0
22/11:30am 15.2 12.9 5.7 53 4.7 W 7 11 4 6 1031.0 1030.8 0.0
22/11:00am 14.8 12.7 6.6 58 4.1 NNW 7 11 4 6 1031.4 1031.2 0.0
22/10:30am 13.7 11.7 6.1 60 3.8 ENE 6 9 3 5 1031.9 1031.7 0.0
22/10:00am 12.6 10.7 6.6 67 3.0 SW 6 9 3 5 1032.1 1031.9 0.0
22/09:30am 11.2 9.2 6.3 72 2.4 W 6 11 3 6 1032.2 1032.0 0.0
22/09:00am 9.6 7.6 7.0 84 1.3 W 7 9 4 5 1032.4 1032.2 0.0
22/08:30am 7.5 5.3 6.4 93 0.5 SW 7 11 4 6 1032.3 1032.1 0.0
22/08:00am 6.2 4.0 6.1 99 0.0 SW 7 9 4 5 1032.1 1031.9 0.0
22/07:30am 5.4 3.2 5.3 99 0.0 SW 6 11 3 6 1031.9 1031.7 0.0
22/07:00am 4.4 3.1 4.3 99 0.0 CALM 0 0 0 0 1031.4 1031.2 0.0
22/06:30am 3.7 0.6 3.6 99 0.0 SSE 9 11 5 6 1031.1 1030.9 0.0
22/06:00am 3.2 0.4 3.1 99 0.0 SSW 7 7 4 4 1030.8 1030.6 0.0
22/05:30am 3.6 0.9 3.5 99 0.0 S 7 9 4 5 1030.6 1030.4 0.0
22/05:00am 3.7 1.2 3.6 99 0.0 S 6 7 3 4 1029.9 1029.7 0.0
22/04:30am 3.7 1.5 3.6 99 0.0 NE 4 7 2 4 1029.7 1029.5 0.0
22/04:00am 5.0 2.1 4.9 99 0.0 S 9 11 5 6 1029.3 1029.0 0.0
22/03:30am 5.1 1.8 4.8 98 0.1 SE 11 15 6 8 1029.1 1028.8 0.0
22/03:00am 5.8 4.8 5.7 99 0.0 CALM 0 0 0 0 1029.3 1029.0 0.0
22/02:30am 4.8 3.6 4.7 99 0.0 CALM 0 6 0 3 1029.5 1029.3 0.0
22/02:00am 4.2 1.6 4.1 99 0.0 N 7 7 4 4 1029.6 1029.4 0.0
22/01:30am 6.3 4.2 5.7 96 0.3 NNE 6 9 3 5 1029.5 1029.3 0.0
22/01:00am 7.5 5.5 7.1 97 0.2 SSE 7 9 4 5 1029.7 1029.5 0.0
22/12:30am 7.4 4.7 5.7 89 0.8 ENE 9 13 5 7 1029.9 1029.7 0.0
22/12:00am 8.3 7.2 6.9 91 0.7 S 2 7 1 4 1030.0 1029.8 0.0
 
Date/Time
EST
Temp
°C
App
Temp
°C
Dew
Point
Rel
Hum
%
Delta-T
°C
Wind Press
QNH
hPa
Press
MSL
hPa
Rain
since 9 am
mm
Dir
 
Spd
km/h
Gust
km/h
Spd
kts
Gust
kts
21/11:30pm 7.8 6.4 5.4 85 1.1 E 2 7 1 4 1030.0 1029.8 0.0
21/11:00pm 9.0 7.8 6.3 83 1.3 E 2 9 1 5 1030.0 1029.8 0.0
21/10:30pm 8.6 6.3 5.0 78 1.7 SSE 6 11 3 6 1030.2 1030.0 0.0
21/10:00pm 9.6 6.5 5.4 75 2.0 ENE 11 15 6 8 1030.3 1030.1 0.0
21/09:30pm 10.6 7.1 5.4 70 2.5 E 13 20 7 11 1030.0 1029.8 0.0
21/09:00pm 11.0 6.7 5.1 67 2.8 ENE 17 22 9 12 1029.5 1029.3 0.0
21/08:30pm 11.2 6.8 4.9 65 3.0 ENE 17 26 9 14 1029.2 1028.9 0.0
21/08:00pm 11.3 6.8 4.3 62 3.3 NE 17 22 9 12 1028.7 1028.5 0.0
21/07:30pm 10.0 6.2 3.7 65 2.9 ENE 13 17 7 9 1028.5 1028.3 0.0
21/07:00pm 10.4 7.1 2.5 58 3.5 NE 9 13 5 7 1028.0 1027.7 0.0
21/06:30pm 13.7 10.8 1.7 44 5.4 S 6 6 3 3 1027.1 1026.9 0.0
21/06:00pm 14.6 11.8 2.2 43 5.7 S 6 7 3 4 1026.7 1026.4 0.0
21/05:30pm 15.2 12.4 3.4 45 5.6 S 7 9 4 5 1026.5 1026.2 0.0
21/05:00pm 16.3 13.0 2.7 40 6.4 SSW 9 11 5 6 1026.4 1026.1 0.0
21/04:30pm 16.9 13.5 1.8 36 7.0 S 9 13 5 7 1026.4 1026.1 0.0
21/04:00pm 16.9 12.7 1.8 36 7.0 S 13 19 7 10 1026.6 1026.3 0.0
21/03:30pm 16.7 13.1 0.4 33 7.4 S 9 13 5 7 1026.8 1026.5 0.0
21/03:00pm 17.5 14.7 2.3 36 7.1 ESE 6 11 3 6 1026.9 1026.6 0.0
21/02:30pm 17.0 13.7 2.6 38 6.8 SSE 9 15 5 8 1027.2 1027.0 0.0
21/02:00pm 17.0 12.8 1.8 36 7.0 SW 13 20 7 11 1027.4 1027.2 0.0
21/01:30pm 16.6 12.7 1.1 35 7.1 SSW 11 15 6 8 1027.8 1027.5 0.0
21/01:00pm 16.6 13.6 1.9 37 6.8 WSW 7 19 4 10 1028.3 1028.1 0.0
21/12:30pm 16.0 11.8 1.7 38 6.6 S 13 17 7 9 1028.7 1028.5 0.0

Other Formats:

Comma delimited format used in spreadsheet applications
http://www.bom.gov.au/fwo/IDN60801/IDN60801.94729.axf

JavaScript Object Notation format (JSON) in row-major order
http://www.bom.gov.au/fwo/IDN60801/IDN60801.94729.json